sensor_id;sensor_type;location;lat;lon;timestamp;temperature;humidity
728;DHT22;347;48.780;9.158;2023-05-13T00:00:14;15.30;35.80
728;DHT22;347;48.780;9.158;2023-05-13T00:02:42;15.40;35.30
728;DHT22;347;48.780;9.158;2023-05-13T00:05:07;15.40;35.20
728;DHT22;347;48.780;9.158;2023-05-13T00:07:33;15.40;35.00
728;DHT22;347;48.780;9.158;2023-05-13T00:09:59;15.20;36.10
728;DHT22;347;48.780;9.158;2023-05-13T00:12:24;15.20;36.10
728;DHT22;347;48.780;9.158;2023-05-13T00:14:50;15.20;35.70
728;DHT22;347;48.780;9.158;2023-05-13T00:17:15;15.20;35.40
728;DHT22;347;48.780;9.158;2023-05-13T00:19:41;15.30;35.20
728;DHT22;347;48.780;9.158;2023-05-13T00:22:07;15.30;35.30
728;DHT22;347;48.780;9.158;2023-05-13T00:24:32;15.30;35.00
728;DHT22;347;48.780;9.158;2023-05-13T00:26:58;15.30;35.00
728;DHT22;347;48.780;9.158;2023-05-13T00:29:23;15.30;35.80
728;DHT22;347;48.780;9.158;2023-05-13T00:31:49;15.30;35.00
728;DHT22;347;48.780;9.158;2023-05-13T00:34:16;15.20;35.10
728;DHT22;347;48.780;9.158;2023-05-13T00:36:42;15.20;35.10
728;DHT22;347;48.780;9.158;2023-05-13T00:39:08;15.20;35.00
728;DHT22;347;48.780;9.158;2023-05-13T00:41:34;15.20;34.80
728;DHT22;347;48.780;9.158;2023-05-13T00:43:59;15.20;35.00
728;DHT22;347;48.780;9.158;2023-05-13T00:46:30;15.20;34.90
728;DHT22;347;48.780;9.158;2023-05-13T00:48:55;15.20;35.00
728;DHT22;347;48.780;9.158;2023-05-13T00:51:21;15.30;35.10
728;DHT22;347;48.780;9.158;2023-05-13T00:53:47;15.30;34.60
728;DHT22;347;48.780;9.158;2023-05-13T00:56:18;15.30;34.70
728;DHT22;347;48.780;9.158;2023-05-13T00:58:43;15.20;34.50
728;DHT22;347;48.780;9.158;2023-05-13T01:01:29;15.20;34.50
728;DHT22;347;48.780;9.158;2023-05-13T01:04:08;15.20;34.90
728;DHT22;347;48.780;9.158;2023-05-13T01:11:40;15.20;35.50
728;DHT22;347;48.780;9.158;2023-05-13T01:14:11;15.10;35.40
728;DHT22;347;48.780;9.158;2023-05-13T01:16:48;15.10;35.10
728;DHT22;347;48.780;9.158;2023-05-13T01:19:45;15.10;35.30
728;DHT22;347;48.780;9.158;2023-05-13T01:22:11;14.90;34.80
728;DHT22;347;48.780;9.158;2023-05-13T01:24:37;14.90;35.40
728;DHT22;347;48.780;9.158;2023-05-13T01:27:03;14.90;35.50
728;DHT22;347;48.780;9.158;2023-05-13T01:29:29;15.00;35.40
728;DHT22;347;48.780;9.158;2023-05-13T01:31:55;14.90;35.00
728;DHT22;347;48.780;9.158;2023-05-13T01:34:22;14.90;35.10
728;DHT22;347;48.780;9.158;2023-05-13T01:36:49;14.90;35.10
728;DHT22;347;48.780;9.158;2023-05-13T01:39:15;14.90;35.30
728;DHT22;347;48.780;9.158;2023-05-13T01:41:42;14.80;34.80
728;DHT22;347;48.780;9.158;2023-05-13T01:44:09;14.90;34.70
728;DHT22;347;48.780;9.158;2023-05-13T01:46:36;14.80;34.90
728;DHT22;347;48.780;9.158;2023-05-13T01:49:02;14.80;34.90
728;DHT22;347;48.780;9.158;2023-05-13T01:51:27;14.80;34.90
728;DHT22;347;48.780;9.158;2023-05-13T01:53:53;14.60;35.50
728;DHT22;347;48.780;9.158;2023-05-13T01:56:18;14.60;35.30
728;DHT22;347;48.780;9.158;2023-05-13T01:58:44;14.60;34.90
728;DHT22;347;48.780;9.158;2023-05-13T02:01:10;14.50;34.80
728;DHT22;347;48.780;9.158;2023-05-13T02:03:36;14.50;35.10
728;DHT22;347;48.780;9.158;2023-05-13T02:06:01;14.40;35.00
728;DHT22;347;48.780;9.158;2023-05-13T02:08:27;14.40;35.40
728;DHT22;347;48.780;9.158;2023-05-13T02:10:56;14.40;35.20
728;DHT22;347;48.780;9.158;2023-05-13T02:13:22;14.40;35.00
728;DHT22;347;48.780;9.158;2023-05-13T02:15:48;14.40;34.80
728;DHT22;347;48.780;9.158;2023-05-13T02:18:14;14.50;34.90
728;DHT22;347;48.780;9.158;2023-05-13T02:20:40;14.40;34.40
728;DHT22;347;48.780;9.158;2023-05-13T02:23:05;14.40;34.70
728;DHT22;347;48.780;9.158;2023-05-13T02:25:32;14.30;34.40
728;DHT22;347;48.780;9.158;2023-05-13T02:27:57;14.30;34.50
728;DHT22;347;48.780;9.158;2023-05-13T02:30:24;14.40;34.30
728;DHT22;347;48.780;9.158;2023-05-13T02:32:51;14.40;33.90
728;DHT22;347;48.780;9.158;2023-05-13T02:35:17;14.40;34.30
728;DHT22;347;48.780;9.158;2023-05-13T02:37:43;14.40;34.60
728;DHT22;347;48.780;9.158;2023-05-13T02:40:09;14.40;33.90
728;DHT22;347;48.780;9.158;2023-05-13T02:42:35;14.40;34.00
728;DHT22;347;48.780;9.158;2023-05-13T02:45:00;14.30;34.70
728;DHT22;347;48.780;9.158;2023-05-13T02:47:26;14.30;34.50
728;DHT22;347;48.780;9.158;2023-05-13T02:49:53;14.30;34.00
728;DHT22;347;48.780;9.158;2023-05-13T02:52:19;14.30;34.60
728;DHT22;347;48.780;9.158;2023-05-13T02:54:44;14.20;34.20
728;DHT22;347;48.780;9.158;2023-05-13T02:57:10;14.20;34.00
728;DHT22;347;48.780;9.158;2023-05-13T02:59:36;14.20;33.70
728;DHT22;347;48.780;9.158;2023-05-13T03:02:01;14.20;33.40
728;DHT22;347;48.780;9.158;2023-05-13T03:04:27;14.10;33.30
728;DHT22;347;48.780;9.158;2023-05-13T03:06:53;14.10;33.90
728;DHT22;347;48.780;9.158;2023-05-13T03:09:18;14.10;33.40
728;DHT22;347;48.780;9.158;2023-05-13T03:11:44;14.10;33.60
728;DHT22;347;48.780;9.158;2023-05-13T03:14:09;14.00;33.10
728;DHT22;347;48.780;9.158;2023-05-13T03:16:35;14.00;33.00
728;DHT22;347;48.780;9.158;2023-05-13T03:19:01;14.00;33.20
728;DHT22;347;48.780;9.158;2023-05-13T03:21:26;14.00;33.10
728;DHT22;347;48.780;9.158;2023-05-13T03:23:52;14.00;33.10
728;DHT22;347;48.780;9.158;2023-05-13T03:26:17;13.90;32.90
728;DHT22;347;48.780;9.158;2023-05-13T03:28:43;13.90;33.40
728;DHT22;347;48.780;9.158;2023-05-13T03:31:08;13.90;33.90
728;DHT22;347;48.780;9.158;2023-05-13T03:33:34;13.90;33.00
728;DHT22;347;48.780;9.158;2023-05-13T03:36:00;14.00;32.80
728;DHT22;347;48.780;9.158;2023-05-13T03:38:25;13.90;33.30
728;DHT22;347;48.780;9.158;2023-05-13T03:40:51;13.90;32.90
728;DHT22;347;48.780;9.158;2023-05-13T03:43:16;13.90;33.20
728;DHT22;347;48.780;9.158;2023-05-13T03:45:42;13.90;33.20
728;DHT22;347;48.780;9.158;2023-05-13T03:48:11;13.90;33.00
728;DHT22;347;48.780;9.158;2023-05-13T03:50:37;13.90;33.10
728;DHT22;347;48.780;9.158;2023-05-13T03:53:03;13.90;32.70
728;DHT22;347;48.780;9.158;2023-05-13T03:55:28;13.90;32.50
728;DHT22;347;48.780;9.158;2023-05-13T03:57:54;13.90;32.50
728;DHT22;347;48.780;9.158;2023-05-13T04:00:20;14.00;32.10
728;DHT22;347;48.780;9.158;2023-05-13T04:02:45;13.90;32.20
728;DHT22;347;48.780;9.158;2023-05-13T04:05:11;13.80;33.00
728;DHT22;347;48.780;9.158;2023-05-13T04:07:38;13.70;32.90
728;DHT22;347;48.780;9.158;2023-05-13T04:10:04;13.70;33.30
728;DHT22;347;48.780;9.158;2023-05-13T04:12:30;13.70;33.10
728;DHT22;347;48.780;9.158;2023-05-13T04:14:57;13.70;33.00
728;DHT22;347;48.780;9.158;2023-05-13T04:17:23;13.70;32.70
728;DHT22;347;48.780;9.158;2023-05-13T04:19:52;13.70;33.00
728;DHT22;347;48.780;9.158;2023-05-13T04:22:18;13.80;33.10
728;DHT22;347;48.780;9.158;2023-05-13T04:24:43;13.80;32.90
728;DHT22;347;48.780;9.158;2023-05-13T04:27:09;13.90;32.80
728;DHT22;347;48.780;9.158;2023-05-13T04:29:35;13.90;32.90
728;DHT22;347;48.780;9.158;2023-05-13T04:32:00;13.80;33.00
728;DHT22;347;48.780;9.158;2023-05-13T04:34:26;13.80;33.20
728;DHT22;347;48.780;9.158;2023-05-13T04:36:51;13.80;33.00
728;DHT22;347;48.780;9.158;2023-05-13T04:39:17;13.80;33.30
728;DHT22;347;48.780;9.158;2023-05-13T04:41:42;13.70;33.20
728;DHT22;347;48.780;9.158;2023-05-13T04:44:08;13.70;33.30
728;DHT22;347;48.780;9.158;2023-05-13T04:46:33;13.70;32.90
728;DHT22;347;48.780;9.158;2023-05-13T04:49:01;13.80;33.30
728;DHT22;347;48.780;9.158;2023-05-13T04:51:27;13.70;33.90
728;DHT22;347;48.780;9.158;2023-05-13T04:53:53;13.70;33.10
728;DHT22;347;48.780;9.158;2023-05-13T04:56:19;13.70;32.80
728;DHT22;347;48.780;9.158;2023-05-13T04:58:45;13.80;32.90
728;DHT22;347;48.780;9.158;2023-05-13T05:01:10;13.80;32.80
728;DHT22;347;48.780;9.158;2023-05-13T05:03:36;13.90;33.00
728;DHT22;347;48.780;9.158;2023-05-13T05:06:01;13.90;32.50
728;DHT22;347;48.780;9.158;2023-05-13T05:08:27;13.80;32.50
728;DHT22;347;48.780;9.158;2023-05-13T05:10:53;13.90;32.20
728;DHT22;347;48.780;9.158;2023-05-13T05:13:18;13.90;32.80
728;DHT22;347;48.780;9.158;2023-05-13T05:15:44;13.90;32.30
728;DHT22;347;48.780;9.158;2023-05-13T05:18:09;13.90;31.80
728;DHT22;347;48.780;9.158;2023-05-13T05:20:36;13.90;31.60
728;DHT22;347;48.780;9.158;2023-05-13T05:23:01;14.00;31.10
728;DHT22;347;48.780;9.158;2023-05-13T05:25:27;13.90;31.30
728;DHT22;347;48.780;9.158;2023-05-13T05:27:53;13.90;31.30
728;DHT22;347;48.780;9.158;2023-05-13T05:30:19;13.90;31.70
728;DHT22;347;48.780;9.158;2023-05-13T05:32:45;13.90;31.10
728;DHT22;347;48.780;9.158;2023-05-13T05:35:11;13.90;31.00
728;DHT22;347;48.780;9.158;2023-05-13T05:37:37;13.80;30.70
728;DHT22;347;48.780;9.158;2023-05-13T05:40:03;13.70;31.30
728;DHT22;347;48.780;9.158;2023-05-13T05:42:29;13.70;32.40
728;DHT22;347;48.780;9.158;2023-05-13T05:44:54;13.70;32.10
728;DHT22;347;48.780;9.158;2023-05-13T05:47:20;13.70;31.80
728;DHT22;347;48.780;9.158;2023-05-13T05:49:45;13.70;31.90
728;DHT22;347;48.780;9.158;2023-05-13T05:52:11;13.70;31.90
728;DHT22;347;48.780;9.158;2023-05-13T05:54:37;13.80;32.10
728;DHT22;347;48.780;9.158;2023-05-13T05:57:03;13.80;31.90
728;DHT22;347;48.780;9.158;2023-05-13T05:59:29;13.70;32.20
728;DHT22;347;48.780;9.158;2023-05-13T06:01:54;13.70;32.10
728;DHT22;347;48.780;9.158;2023-05-13T06:04:20;13.70;32.10
728;DHT22;347;48.780;9.158;2023-05-13T06:06:45;13.80;32.50
728;DHT22;347;48.780;9.158;2023-05-13T06:09:11;13.90;32.70
728;DHT22;347;48.780;9.158;2023-05-13T06:11:37;13.90;32.20
728;DHT22;347;48.780;9.158;2023-05-13T06:14:02;13.90;31.80
728;DHT22;347;48.780;9.158;2023-05-13T06:16:28;13.90;31.70
728;DHT22;347;48.780;9.158;2023-05-13T06:18:53;13.90;31.80
728;DHT22;347;48.780;9.158;2023-05-13T06:21:19;13.90;32.10
728;DHT22;347;48.780;9.158;2023-05-13T06:23:44;13.90;32.20
728;DHT22;347;48.780;9.158;2023-05-13T06:26:10;13.90;31.70
728;DHT22;347;48.780;9.158;2023-05-13T06:28:35;13.90;31.40
728;DHT22;347;48.780;9.158;2023-05-13T06:31:01;13.80;32.20
728;DHT22;347;48.780;9.158;2023-05-13T06:33:27;13.60;32.80
728;DHT22;347;48.780;9.158;2023-05-13T06:35:52;13.70;32.80
728;DHT22;347;48.780;9.158;2023-05-13T06:38:18;13.70;32.80
728;DHT22;347;48.780;9.158;2023-05-13T06:40:44;13.70;32.80
728;DHT22;347;48.780;9.158;2023-05-13T06:43:10;13.70;32.70
728;DHT22;347;48.780;9.158;2023-05-13T06:45:38;13.80;32.60
728;DHT22;347;48.780;9.158;2023-05-13T06:48:04;13.80;32.40
728;DHT22;347;48.780;9.158;2023-05-13T06:50:30;13.80;32.60
728;DHT22;347;48.780;9.158;2023-05-13T06:52:55;13.90;32.20
728;DHT22;347;48.780;9.158;2023-05-13T06:55:22;13.90;32.50
728;DHT22;347;48.780;9.158;2023-05-13T06:57:47;13.80;32.00
728;DHT22;347;48.780;9.158;2023-05-13T07:00:14;13.70;32.80
728;DHT22;347;48.780;9.158;2023-05-13T07:02:40;13.70;32.80
728;DHT22;347;48.780;9.158;2023-05-13T07:05:07;13.70;32.90
728;DHT22;347;48.780;9.158;2023-05-13T07:07:32;13.80;32.80
728;DHT22;347;48.780;9.158;2023-05-13T07:09:58;13.90;32.30
728;DHT22;347;48.780;9.158;2023-05-13T07:12:23;14.00;31.80
728;DHT22;347;48.780;9.158;2023-05-13T07:14:49;14.00;31.50
728;DHT22;347;48.780;9.158;2023-05-13T07:17:15;13.90;30.90
728;DHT22;347;48.780;9.158;2023-05-13T07:19:41;13.80;32.10
728;DHT22;347;48.780;9.158;2023-05-13T07:22:06;13.90;31.70
728;DHT22;347;48.780;9.158;2023-05-13T07:24:32;13.90;31.60
728;DHT22;347;48.780;9.158;2023-05-13T07:26:57;13.80;32.20
728;DHT22;347;48.780;9.158;2023-05-13T07:29:23;13.80;32.30
728;DHT22;347;48.780;9.158;2023-05-13T07:31:49;13.70;32.40
728;DHT22;347;48.780;9.158;2023-05-13T07:34:15;13.60;32.50
728;DHT22;347;48.780;9.158;2023-05-13T07:36:40;13.50;32.90
728;DHT22;347;48.780;9.158;2023-05-13T07:39:06;13.40;33.80
728;DHT22;347;48.780;9.158;2023-05-13T07:41:33;13.50;34.00
728;DHT22;347;48.780;9.158;2023-05-13T07:43:59;13.50;33.10
728;DHT22;347;48.780;9.158;2023-05-13T07:46:24;13.50;34.00
728;DHT22;347;48.780;9.158;2023-05-13T07:48:50;13.60;33.60
728;DHT22;347;48.780;9.158;2023-05-13T07:51:15;13.70;32.90
728;DHT22;347;48.780;9.158;2023-05-13T07:53:42;13.70;32.90
728;DHT22;347;48.780;9.158;2023-05-13T07:56:09;13.70;32.80
728;DHT22;347;48.780;9.158;2023-05-13T07:58:35;13.70;32.90
728;DHT22;347;48.780;9.158;2023-05-13T08:01:01;13.70;32.80
728;DHT22;347;48.780;9.158;2023-05-13T08:03:29;13.60;33.10
728;DHT22;347;48.780;9.158;2023-05-13T08:05:55;13.60;33.20
728;DHT22;347;48.780;9.158;2023-05-13T08:08:20;13.70;33.60
728;DHT22;347;48.780;9.158;2023-05-13T08:10:46;13.80;33.10
728;DHT22;347;48.780;9.158;2023-05-13T08:13:11;13.90;32.30
728;DHT22;347;48.780;9.158;2023-05-13T08:15:37;13.90;32.20
728;DHT22;347;48.780;9.158;2023-05-13T08:18:03;13.90;32.70
728;DHT22;347;48.780;9.158;2023-05-13T08:20:28;14.00;32.70
728;DHT22;347;48.780;9.158;2023-05-13T08:22:57;14.10;32.40
728;DHT22;347;48.780;9.158;2023-05-13T08:25:23;14.10;32.30
728;DHT22;347;48.780;9.158;2023-05-13T08:27:48;14.20;32.30
728;DHT22;347;48.780;9.158;2023-05-13T08:30:14;14.20;33.10
728;DHT22;347;48.780;9.158;2023-05-13T08:32:40;14.00;32.20
728;DHT22;347;48.780;9.158;2023-05-13T08:35:06;14.10;32.50
728;DHT22;347;48.780;9.158;2023-05-13T08:37:31;14.20;32.40
728;DHT22;347;48.780;9.158;2023-05-13T08:39:57;14.30;32.50
728;DHT22;347;48.780;9.158;2023-05-13T08:42:26;14.30;32.50
728;DHT22;347;48.780;9.158;2023-05-13T08:44:53;14.30;32.10
728;DHT22;347;48.780;9.158;2023-05-13T08:49:54;14.40;31.80
728;DHT22;347;48.780;9.158;2023-05-13T08:52:21;14.40;32.10
728;DHT22;347;48.780;9.158;2023-05-13T08:54:48;14.40;32.20
728;DHT22;347;48.780;9.158;2023-05-13T08:57:13;14.40;32.00
728;DHT22;347;48.780;9.158;2023-05-13T08:59:39;14.40;31.70
728;DHT22;347;48.780;9.158;2023-05-13T09:02:05;14.40;31.50
728;DHT22;347;48.780;9.158;2023-05-13T09:04:32;14.40;31.90
728;DHT22;347;48.780;9.158;2023-05-13T09:07:02;14.30;32.20
728;DHT22;347;48.780;9.158;2023-05-13T09:09:28;14.30;32.40
728;DHT22;347;48.780;9.158;2023-05-13T09:11:54;14.30;32.40
728;DHT22;347;48.780;9.158;2023-05-13T09:14:19;14.30;32.20
728;DHT22;347;48.780;9.158;2023-05-13T09:16:46;14.30;32.40
728;DHT22;347;48.780;9.158;2023-05-13T09:19:12;14.30;32.20
728;DHT22;347;48.780;9.158;2023-05-13T09:21:38;14.20;32.20
728;DHT22;347;48.780;9.158;2023-05-13T09:24:13;14.30;32.00
728;DHT22;347;48.780;9.158;2023-05-13T09:26:43;14.40;31.70
728;DHT22;347;48.780;9.158;2023-05-13T09:29:21;14.40;32.20
728;DHT22;347;48.780;9.158;2023-05-13T09:31:55;14.40;32.20
728;DHT22;347;48.780;9.158;2023-05-13T09:34:31;14.50;32.00
728;DHT22;347;48.780;9.158;2023-05-13T09:36:58;14.50;31.70
728;DHT22;347;48.780;9.158;2023-05-13T09:39:24;14.60;31.50
728;DHT22;347;48.780;9.158;2023-05-13T09:41:49;14.50;31.30
728;DHT22;347;48.780;9.158;2023-05-13T09:44:16;14.30;31.70
728;DHT22;347;48.780;9.158;2023-05-13T09:46:42;14.20;32.60
728;DHT22;347;48.780;9.158;2023-05-13T09:49:09;14.30;32.40
728;DHT22;347;48.780;9.158;2023-05-13T09:51:35;14.20;32.70
728;DHT22;347;48.780;9.158;2023-05-13T09:54:04;14.10;32.80
728;DHT22;347;48.780;9.158;2023-05-13T09:56:34;14.20;33.10
728;DHT22;347;48.780;9.158;2023-05-13T09:59:01;14.30;33.00
728;DHT22;347;48.780;9.158;2023-05-13T10:01:27;14.40;32.30
728;DHT22;347;48.780;9.158;2023-05-13T10:03:57;14.40;31.90
728;DHT22;347;48.780;9.158;2023-05-13T10:06:25;14.40;32.40
728;DHT22;347;48.780;9.158;2023-05-13T10:08:53;14.30;33.00
728;DHT22;347;48.780;9.158;2023-05-13T10:11:19;14.40;33.50
728;DHT22;347;48.780;9.158;2023-05-13T10:13:54;14.40;32.50
728;DHT22;347;48.780;9.158;2023-05-13T10:16:23;14.40;32.70
728;DHT22;347;48.780;9.158;2023-05-13T10:18:49;14.30;33.30
728;DHT22;347;48.780;9.158;2023-05-13T10:21:16;14.20;33.10
728;DHT22;347;48.780;9.158;2023-05-13T10:23:44;14.20;33.60
728;DHT22;347;48.780;9.158;2023-05-13T10:26:11;14.30;33.60
728;DHT22;347;48.780;9.158;2023-05-13T10:28:37;14.40;33.40
728;DHT22;347;48.780;9.158;2023-05-13T10:31:03;14.50;33.00
728;DHT22;347;48.780;9.158;2023-05-13T10:33:29;14.60;32.80
728;DHT22;347;48.780;9.158;2023-05-13T10:39:09;14.70;32.50
728;DHT22;347;48.780;9.158;2023-05-13T10:44:34;14.90;31.70
728;DHT22;347;48.780;9.158;2023-05-13T10:47:01;14.90;31.70
728;DHT22;347;48.780;9.158;2023-05-13T10:49:32;14.90;31.70
728;DHT22;347;48.780;9.158;2023-05-13T10:52:06;14.90;31.80
728;DHT22;347;48.780;9.158;2023-05-13T10:54:37;14.90;31.70
728;DHT22;347;48.780;9.158;2023-05-13T10:57:07;14.90;32.20
728;DHT22;347;48.780;9.158;2023-05-13T10:59:33;14.90;32.00
728;DHT22;347;48.780;9.158;2023-05-13T11:02:22;14.90;31.90
728;DHT22;347;48.780;9.158;2023-05-13T11:04:58;14.90;31.80
728;DHT22;347;48.780;9.158;2023-05-13T11:07:27;14.90;31.70
728;DHT22;347;48.780;9.158;2023-05-13T11:09:53;14.90;31.80
728;DHT22;347;48.780;9.158;2023-05-13T11:12:18;14.90;32.00
728;DHT22;347;48.780;9.158;2023-05-13T11:14:44;14.90;32.20
728;DHT22;347;48.780;9.158;2023-05-13T11:17:11;14.90;31.80
728;DHT22;347;48.780;9.158;2023-05-13T11:19:47;15.00;31.90
728;DHT22;347;48.780;9.158;2023-05-13T11:22:14;15.00;32.20
728;DHT22;347;48.780;9.158;2023-05-13T11:25:05;15.00;32.10
728;DHT22;347;48.780;9.158;2023-05-13T11:27:39;15.10;31.90
728;DHT22;347;48.780;9.158;2023-05-13T11:30:22;15.10;31.50
728;DHT22;347;48.780;9.158;2023-05-13T11:35:24;15.10;31.70
728;DHT22;347;48.780;9.158;2023-05-13T11:37:50;15.20;31.70
728;DHT22;347;48.780;9.158;2023-05-13T11:40:33;15.30;31.00
728;DHT22;347;48.780;9.158;2023-05-13T11:43:00;15.30;31.10
728;DHT22;347;48.780;9.158;2023-05-13T11:45:26;15.30;31.30
728;DHT22;347;48.780;9.158;2023-05-13T11:47:52;15.30;31.10
728;DHT22;347;48.780;9.158;2023-05-13T11:50:25;15.30;31.20
728;DHT22;347;48.780;9.158;2023-05-13T11:52:55;15.20;30.90
728;DHT22;347;48.780;9.158;2023-05-13T11:55:28;15.10;31.60
728;DHT22;347;48.780;9.158;2023-05-13T11:57:55;15.20;31.30
728;DHT22;347;48.780;9.158;2023-05-13T12:00:28;15.20;31.60
728;DHT22;347;48.780;9.158;2023-05-13T12:02:55;15.20;31.50
728;DHT22;347;48.780;9.158;2023-05-13T12:05:21;15.20;31.80
728;DHT22;347;48.780;9.158;2023-05-13T12:07:47;15.20;31.80
728;DHT22;347;48.780;9.158;2023-05-13T12:10:13;15.20;31.70
728;DHT22;347;48.780;9.158;2023-05-13T12:12:42;15.20;31.30
728;DHT22;347;48.780;9.158;2023-05-13T12:15:10;15.20;31.30
728;DHT22;347;48.780;9.158;2023-05-13T12:17:36;15.30;31.50
728;DHT22;347;48.780;9.158;2023-05-13T12:20:09;15.30;31.60
728;DHT22;347;48.780;9.158;2023-05-13T12:25:45;15.20;31.30
728;DHT22;347;48.780;9.158;2023-05-13T12:28:17;15.20;30.50
728;DHT22;347;48.780;9.158;2023-05-13T12:30:47;15.20;30.10
728;DHT22;347;48.780;9.158;2023-05-13T12:33:21;15.30;30.00
728;DHT22;347;48.780;9.158;2023-05-13T12:35:49;15.30;30.30
728;DHT22;347;48.780;9.158;2023-05-13T12:38:20;15.20;30.20
728;DHT22;347;48.780;9.158;2023-05-13T12:40:46;15.20;30.40
728;DHT22;347;48.780;9.158;2023-05-13T12:43:14;15.30;30.40
728;DHT22;347;48.780;9.158;2023-05-13T12:45:41;15.20;30.30
728;DHT22;347;48.780;9.158;2023-05-13T12:48:07;15.40;31.20
728;DHT22;347;48.780;9.158;2023-05-13T12:50:33;15.30;30.10
728;DHT22;347;48.780;9.158;2023-05-13T12:52:58;15.30;30.30
728;DHT22;347;48.780;9.158;2023-05-13T12:55:25;15.40;30.40
728;DHT22;347;48.780;9.158;2023-05-13T12:57:59;15.50;30.30
728;DHT22;347;48.780;9.158;2023-05-13T13:00:25;15.40;30.00
728;DHT22;347;48.780;9.158;2023-05-13T13:02:52;15.40;30.00
728;DHT22;347;48.780;9.158;2023-05-13T13:05:19;15.40;30.60
728;DHT22;347;48.780;9.158;2023-05-13T13:07:45;15.40;30.10
728;DHT22;347;48.780;9.158;2023-05-13T13:10:11;15.50;29.90
728;DHT22;347;48.780;9.158;2023-05-13T13:12:36;15.60;30.00
728;DHT22;347;48.780;9.158;2023-05-13T13:15:03;15.70;30.00
728;DHT22;347;48.780;9.158;2023-05-13T13:17:29;15.70;29.30
728;DHT22;347;48.780;9.158;2023-05-13T13:19:54;15.60;29.60
728;DHT22;347;48.780;9.158;2023-05-13T13:22:20;15.60;29.50
728;DHT22;347;48.780;9.158;2023-05-13T13:24:46;15.70;29.40
728;DHT22;347;48.780;9.158;2023-05-13T13:27:11;15.80;29.30
728;DHT22;347;48.780;9.158;2023-05-13T13:29:37;15.90;28.80
728;DHT22;347;48.780;9.158;2023-05-13T13:32:03;15.90;28.60
728;DHT22;347;48.780;9.158;2023-05-13T13:34:28;16.00;28.90
728;DHT22;347;48.780;9.158;2023-05-13T13:36:54;16.00;28.80
728;DHT22;347;48.780;9.158;2023-05-13T13:39:20;16.00;28.70
728;DHT22;347;48.780;9.158;2023-05-13T13:41:45;15.90;28.80
728;DHT22;347;48.780;9.158;2023-05-13T13:44:11;15.90;29.10
728;DHT22;347;48.780;9.158;2023-05-13T13:46:37;15.90;29.20
728;DHT22;347;48.780;9.158;2023-05-13T13:49:03;16.00;29.20
728;DHT22;347;48.780;9.158;2023-05-13T13:51:28;16.10;29.50
728;DHT22;347;48.780;9.158;2023-05-13T13:53:55;16.10;29.20
728;DHT22;347;48.780;9.158;2023-05-13T13:56:20;16.20;29.40
728;DHT22;347;48.780;9.158;2023-05-13T13:58:46;16.20;28.80
728;DHT22;347;48.780;9.158;2023-05-13T14:01:12;16.20;28.00
728;DHT22;347;48.780;9.158;2023-05-13T14:03:38;16.20;28.10
728;DHT22;347;48.780;9.158;2023-05-13T14:06:04;16.20;27.80
728;DHT22;347;48.780;9.158;2023-05-13T14:08:30;16.20;27.50
728;DHT22;347;48.780;9.158;2023-05-13T14:10:55;16.20;27.40
728;DHT22;347;48.780;9.158;2023-05-13T14:13:22;16.20;27.40
728;DHT22;347;48.780;9.158;2023-05-13T14:15:47;16.30;27.60
728;DHT22;347;48.780;9.158;2023-05-13T14:18:13;16.20;27.70
728;DHT22;347;48.780;9.158;2023-05-13T14:20:38;16.10;28.00
728;DHT22;347;48.780;9.158;2023-05-13T14:23:04;16.20;28.20
728;DHT22;347;48.780;9.158;2023-05-13T14:25:29;16.20;28.20
728;DHT22;347;48.780;9.158;2023-05-13T14:27:55;16.20;28.40
728;DHT22;347;48.780;9.158;2023-05-13T14:30:20;16.10;29.10
728;DHT22;347;48.780;9.158;2023-05-13T14:32:47;16.10;28.40
728;DHT22;347;48.780;9.158;2023-05-13T14:35:12;16.10;28.60
728;DHT22;347;48.780;9.158;2023-05-13T14:37:39;16.10;28.80
728;DHT22;347;48.780;9.158;2023-05-13T14:40:05;16.10;28.70
728;DHT22;347;48.780;9.158;2023-05-13T14:42:31;16.10;29.10
728;DHT22;347;48.780;9.158;2023-05-13T14:44:56;16.00;29.50
728;DHT22;347;48.780;9.158;2023-05-13T14:47:22;16.00;29.80
728;DHT22;347;48.780;9.158;2023-05-13T14:49:48;16.00;29.40
728;DHT22;347;48.780;9.158;2023-05-13T14:52:13;16.00;29.30
728;DHT22;347;48.780;9.158;2023-05-13T14:54:39;16.00;29.50
728;DHT22;347;48.780;9.158;2023-05-13T14:57:05;16.00;29.60
728;DHT22;347;48.780;9.158;2023-05-13T14:59:32;16.00;29.30
728;DHT22;347;48.780;9.158;2023-05-13T15:01:59;16.00;29.30
728;DHT22;347;48.780;9.158;2023-05-13T15:04:24;16.00;29.10
728;DHT22;347;48.780;9.158;2023-05-13T15:06:50;16.00;29.10
728;DHT22;347;48.780;9.158;2023-05-13T15:09:15;15.90;29.20
728;DHT22;347;48.780;9.158;2023-05-13T15:11:42;15.90;29.20
728;DHT22;347;48.780;9.158;2023-05-13T15:14:08;15.90;29.20
728;DHT22;347;48.780;9.158;2023-05-13T15:16:34;15.90;29.40
728;DHT22;347;48.780;9.158;2023-05-13T15:18:59;15.90;29.30
728;DHT22;347;48.780;9.158;2023-05-13T15:21:25;15.90;29.60
728;DHT22;347;48.780;9.158;2023-05-13T15:23:50;16.00;30.00
728;DHT22;347;48.780;9.158;2023-05-13T15:26:16;16.00;29.70
728;DHT22;347;48.780;9.158;2023-05-13T15:28:42;16.00;29.30
728;DHT22;347;48.780;9.158;2023-05-13T15:31:07;16.00;29.30
728;DHT22;347;48.780;9.158;2023-05-13T15:33:33;16.00;29.40
728;DHT22;347;48.780;9.158;2023-05-13T15:35:59;16.00;29.30
728;DHT22;347;48.780;9.158;2023-05-13T15:38:25;16.00;28.90
728;DHT22;347;48.780;9.158;2023-05-13T15:40:51;16.10;29.10
728;DHT22;347;48.780;9.158;2023-05-13T15:43:16;16.10;28.80
728;DHT22;347;48.780;9.158;2023-05-13T15:45:42;16.10;29.20
728;DHT22;347;48.780;9.158;2023-05-13T15:48:08;16.00;28.70
728;DHT22;347;48.780;9.158;2023-05-13T15:50:34;16.10;28.90
728;DHT22;347;48.780;9.158;2023-05-13T15:52:59;16.10;29.40
728;DHT22;347;48.780;9.158;2023-05-13T15:55:25;16.10;29.00
728;DHT22;347;48.780;9.158;2023-05-13T15:57:50;16.10;29.10
728;DHT22;347;48.780;9.158;2023-05-13T16:00:16;16.10;29.20
728;DHT22;347;48.780;9.158;2023-05-13T16:02:42;16.00;29.10
728;DHT22;347;48.780;9.158;2023-05-13T16:05:08;16.10;29.10
728;DHT22;347;48.780;9.158;2023-05-13T16:07:36;16.10;29.40
728;DHT22;347;48.780;9.158;2023-05-13T16:10:02;16.10;29.20
728;DHT22;347;48.780;9.158;2023-05-13T16:12:31;16.00;29.30
728;DHT22;347;48.780;9.158;2023-05-13T16:14:57;16.00;29.70
728;DHT22;347;48.780;9.158;2023-05-13T16:17:23;16.00;30.00
728;DHT22;347;48.780;9.158;2023-05-13T16:19:49;16.00;29.70
728;DHT22;347;48.780;9.158;2023-05-13T16:22:43;16.00;29.60
728;DHT22;347;48.780;9.158;2023-05-13T16:25:09;16.00;29.80
728;DHT22;347;48.780;9.158;2023-05-13T16:27:37;16.00;29.80
728;DHT22;347;48.780;9.158;2023-05-13T16:30:05;16.00;30.30
728;DHT22;347;48.780;9.158;2023-05-13T16:32:32;16.00;30.40
728;DHT22;347;48.780;9.158;2023-05-13T16:34:59;16.00;30.10
728;DHT22;347;48.780;9.158;2023-05-13T16:37:26;16.10;29.60
728;DHT22;347;48.780;9.158;2023-05-13T16:39:51;16.00;29.70
728;DHT22;347;48.780;9.158;2023-05-13T16:42:17;16.00;29.40
728;DHT22;347;48.780;9.158;2023-05-13T16:44:44;16.00;29.50
728;DHT22;347;48.780;9.158;2023-05-13T16:47:10;16.00;29.70
728;DHT22;347;48.780;9.158;2023-05-13T16:49:36;16.00;29.60